Alvarado, Texas
Current Conditions -  °F | °C
As of 2:53 PM on Tuesday 21 Oct 2014 (Local Time) from KFWS Reporting Station
Clear Clear  
Wind Chill: 28°   Ceiling: Unl
Heat Index: 28°   Visibility: 10mi
Dew Point: 11°   Wind: 7mph
Humidity: 35%   Direction: 150°SSE
Pressure: 30.05"   Gusts: NA
Location:  32.41°N, 97.21°W
Report Text: KFWS 211953Z 15006KT 10SM CLR 28/11 A3005
Loading
Personal Weather Stations






























Interactive Weather Map
Tropical Storm Tracking
New forecast layout! Learn more

10-Day Weather Forecast

Advertisements
Track Severe Weather on mobile